sensor_id;sensor_type;location;lat;lon;timestamp;temperature;humidity
42907;DHT22;28552;51.146;6.576;2023-07-08T00:00:36;19.40;95.80
42907;DHT22;28552;51.146;6.576;2023-07-08T00:03:36;19.50;96.00
42907;DHT22;28552;51.146;6.576;2023-07-08T00:06:37;19.40;96.30
42907;DHT22;28552;51.146;6.576;2023-07-08T00:09:37;19.40;96.70
42907;DHT22;28552;51.146;6.576;2023-07-08T00:12:38;19.40;97.20
42907;DHT22;28552;51.146;6.576;2023-07-08T00:15:40;19.30;98.00
42907;DHT22;28552;51.146;6.576;2023-07-08T00:18:41;19.30;98.70
42907;DHT22;28552;51.146;6.576;2023-07-08T00:21:42;19.20;99.20
42907;DHT22;28552;51.146;6.576;2023-07-08T00:24:42;19.10;99.60
42907;DHT22;28552;51.146;6.576;2023-07-08T00:27:43;19.10;99.90
42907;DHT22;28552;51.146;6.576;2023-07-08T00:30:44;19.20;99.90
42907;DHT22;28552;51.146;6.576;2023-07-08T00:33:44;19.20;99.90
42907;DHT22;28552;51.146;6.576;2023-07-08T00:36:45;19.30;99.90
42907;DHT22;28552;51.146;6.576;2023-07-08T00:39:46;19.20;99.90
42907;DHT22;28552;51.146;6.576;2023-07-08T00:42:49;19.20;99.90
42907;DHT22;28552;51.146;6.576;2023-07-08T00:45:53;19.20;99.90
42907;DHT22;28552;51.146;6.576;2023-07-08T00:49:29;19.30;99.90
42907;DHT22;28552;51.146;6.576;2023-07-08T00:52:33;19.30;99.90
42907;DHT22;28552;51.146;6.576;2023-07-08T00:55:34;19.30;99.90
42907;DHT22;28552;51.146;6.576;2023-07-08T01:01:56;19.50;99.90
42907;DHT22;28552;51.146;6.576;2023-07-08T01:05:04;19.50;99.90
42907;DHT22;28552;51.146;6.576;2023-07-08T01:08:05;19.50;99.90
42907;DHT22;28552;51.146;6.576;2023-07-08T01:11:06;19.60;99.90
42907;DHT22;28552;51.146;6.576;2023-07-08T01:14:10;19.60;99.90
42907;DHT22;28552;51.146;6.576;2023-07-08T01:17:12;19.60;99.90
42907;DHT22;28552;51.146;6.576;2023-07-08T01:20:14;19.60;99.90
42907;DHT22;28552;51.146;6.576;2023-07-08T01:23:15;19.60;99.90
42907;DHT22;28552;51.146;6.576;2023-07-08T01:26:17;19.50;99.90
42907;DHT22;28552;51.146;6.576;2023-07-08T01:29:18;19.50;99.90
42907;DHT22;28552;51.146;6.576;2023-07-08T01:32:19;19.50;99.90
42907;DHT22;28552;51.146;6.576;2023-07-08T01:35:23;19.60;99.90
42907;DHT22;28552;51.146;6.576;2023-07-08T01:38:25;19.60;99.90
42907;DHT22;28552;51.146;6.576;2023-07-08T01:41:27;19.70;99.90
42907;DHT22;28552;51.146;6.576;2023-07-08T01:44:32;19.70;99.90
42907;DHT22;28552;51.146;6.576;2023-07-08T01:47:33;19.80;99.90
42907;DHT22;28552;51.146;6.576;2023-07-08T01:50:37;19.70;99.90
42907;DHT22;28552;51.146;6.576;2023-07-08T01:53:40;19.60;99.90
42907;DHT22;28552;51.146;6.576;2023-07-08T01:56:42;19.40;99.90
42907;DHT22;28552;51.146;6.576;2023-07-08T01:59:42;19.30;99.90
42907;DHT22;28552;51.146;6.576;2023-07-08T02:02:43;19.10;99.90
42907;DHT22;28552;51.146;6.576;2023-07-08T02:05:45;19.00;99.90
42907;DHT22;28552;51.146;6.576;2023-07-08T02:08:46;19.00;99.90
42907;DHT22;28552;51.146;6.576;2023-07-08T02:11:47;19.00;99.90
42907;DHT22;28552;51.146;6.576;2023-07-08T02:14:47;19.00;99.90
42907;DHT22;28552;51.146;6.576;2023-07-08T02:17:51;19.10;99.90
42907;DHT22;28552;51.146;6.576;2023-07-08T02:20:51;19.10;99.90
42907;DHT22;28552;51.146;6.576;2023-07-08T02:23:52;19.10;99.90
42907;DHT22;28552;51.146;6.576;2023-07-08T02:26:53;19.00;99.90
42907;DHT22;28552;51.146;6.576;2023-07-08T02:29:53;18.90;99.90
42907;DHT22;28552;51.146;6.576;2023-07-08T02:32:54;18.90;99.90
42907;DHT22;28552;51.146;6.576;2023-07-08T02:35:58;18.80;99.90
42907;DHT22;28552;51.146;6.576;2023-07-08T02:38:58;18.80;99.90
42907;DHT22;28552;51.146;6.576;2023-07-08T02:41:59;18.90;99.90
42907;DHT22;28552;51.146;6.576;2023-07-08T02:45:01;18.90;99.90
42907;DHT22;28552;51.146;6.576;2023-07-08T02:48:02;18.90;99.90
42907;DHT22;28552;51.146;6.576;2023-07-08T02:51:04;18.80;99.90
42907;DHT22;28552;51.146;6.576;2023-07-08T02:54:05;18.70;99.90
42907;DHT22;28552;51.146;6.576;2023-07-08T02:57:06;18.60;99.90
42907;DHT22;28552;51.146;6.576;2023-07-08T03:00:07;18.50;99.90
42907;DHT22;28552;51.146;6.576;2023-07-08T03:03:07;18.40;99.90
42907;DHT22;28552;51.146;6.576;2023-07-08T03:06:09;18.40;99.90
42907;DHT22;28552;51.146;6.576;2023-07-08T03:09:11;18.40;99.90
42907;DHT22;28552;51.146;6.576;2023-07-08T03:12:12;18.40;99.90
42907;DHT22;28552;51.146;6.576;2023-07-08T03:15:13;18.30;99.90
42907;DHT22;28552;51.146;6.576;2023-07-08T03:18:13;18.30;99.90
42907;DHT22;28552;51.146;6.576;2023-07-08T03:21:16;18.20;99.90
42907;DHT22;28552;51.146;6.576;2023-07-08T03:24:18;18.20;99.90
42907;DHT22;28552;51.146;6.576;2023-07-08T03:27:21;18.20;99.90
42907;DHT22;28552;51.146;6.576;2023-07-08T03:30:22;18.20;99.90
42907;DHT22;28552;51.146;6.576;2023-07-08T03:33:23;18.20;99.90
42907;DHT22;28552;51.146;6.576;2023-07-08T03:36:24;18.20;99.90
42907;DHT22;28552;51.146;6.576;2023-07-08T03:39:25;18.10;99.90
42907;DHT22;28552;51.146;6.576;2023-07-08T03:42:26;18.20;99.90
42907;DHT22;28552;51.146;6.576;2023-07-08T03:45:26;18.30;99.90
42907;DHT22;28552;51.146;6.576;2023-07-08T03:48:27;18.30;99.90
42907;DHT22;28552;51.146;6.576;2023-07-08T03:51:32;18.20;99.90
42907;DHT22;28552;51.146;6.576;2023-07-08T03:54:33;18.10;99.90
42907;DHT22;28552;51.146;6.576;2023-07-08T03:57:34;18.10;99.90
42907;DHT22;28552;51.146;6.576;2023-07-08T04:00:34;18.10;99.90
42907;DHT22;28552;51.146;6.576;2023-07-08T04:03:35;18.10;99.90
42907;DHT22;28552;51.146;6.576;2023-07-08T04:06:36;18.20;99.90
42907;DHT22;28552;51.146;6.576;2023-07-08T04:09:37;18.30;99.90
42907;DHT22;28552;51.146;6.576;2023-07-08T04:12:37;18.40;99.90
42907;DHT22;28552;51.146;6.576;2023-07-08T04:15:39;18.40;99.90
42907;DHT22;28552;51.146;6.576;2023-07-08T04:18:39;18.30;99.90
42907;DHT22;28552;51.146;6.576;2023-07-08T04:21:41;18.20;99.90
42907;DHT22;28552;51.146;6.576;2023-07-08T04:24:43;18.10;99.90
42907;DHT22;28552;51.146;6.576;2023-07-08T04:27:43;18.00;99.90
42907;DHT22;28552;51.146;6.576;2023-07-08T04:30:44;17.90;99.90
42907;DHT22;28552;51.146;6.576;2023-07-08T04:33:45;17.90;99.90
42907;DHT22;28552;51.146;6.576;2023-07-08T04:36:46;17.80;99.90
42907;DHT22;28552;51.146;6.576;2023-07-08T04:39:46;17.90;99.90
42907;DHT22;28552;51.146;6.576;2023-07-08T04:42:50;18.00;99.90
42907;DHT22;28552;51.146;6.576;2023-07-08T04:45:53;18.10;99.90
42907;DHT22;28552;51.146;6.576;2023-07-08T04:48:54;18.10;99.90
42907;DHT22;28552;51.146;6.576;2023-07-08T04:51:56;18.00;99.90
42907;DHT22;28552;51.146;6.576;2023-07-08T04:54:56;18.00;99.90
42907;DHT22;28552;51.146;6.576;2023-07-08T04:57:57;18.00;99.90
42907;DHT22;28552;51.146;6.576;2023-07-08T05:00:58;18.10;99.90
42907;DHT22;28552;51.146;6.576;2023-07-08T05:03:58;18.10;99.90
42907;DHT22;28552;51.146;6.576;2023-07-08T05:06:59;18.20;99.90
42907;DHT22;28552;51.146;6.576;2023-07-08T05:10:00;18.30;99.90
42907;DHT22;28552;51.146;6.576;2023-07-08T05:13:01;18.30;99.90
42907;DHT22;28552;51.146;6.576;2023-07-08T05:16:01;18.40;99.90
42907;DHT22;28552;51.146;6.576;2023-07-08T05:19:02;18.40;99.90
42907;DHT22;28552;51.146;6.576;2023-07-08T05:22:03;18.60;99.90
42907;DHT22;28552;51.146;6.576;2023-07-08T05:25:04;18.80;99.90
42907;DHT22;28552;51.146;6.576;2023-07-08T05:28:05;18.90;99.90
42907;DHT22;28552;51.146;6.576;2023-07-08T05:31:06;19.10;99.90
42907;DHT22;28552;51.146;6.576;2023-07-08T05:34:07;19.20;99.90
42907;DHT22;28552;51.146;6.576;2023-07-08T05:37:07;19.30;99.90
42907;DHT22;28552;51.146;6.576;2023-07-08T05:40:08;19.40;99.90
42907;DHT22;28552;51.146;6.576;2023-07-08T05:43:09;19.60;99.90
42907;DHT22;28552;51.146;6.576;2023-07-08T05:46:12;19.70;99.90
42907;DHT22;28552;51.146;6.576;2023-07-08T05:49:13;19.90;99.90
42907;DHT22;28552;51.146;6.576;2023-07-08T05:52:13;20.10;99.90
42907;DHT22;28552;51.146;6.576;2023-07-08T05:55:14;20.40;99.90
42907;DHT22;28552;51.146;6.576;2023-07-08T05:58:15;20.60;99.90
42907;DHT22;28552;51.146;6.576;2023-07-08T06:01:15;20.90;99.90
42907;DHT22;28552;51.146;6.576;2023-07-08T06:04:16;21.20;99.90
42907;DHT22;28552;51.146;6.576;2023-07-08T06:07:17;21.40;99.50
42907;DHT22;28552;51.146;6.576;2023-07-08T06:10:17;21.70;98.80
42907;DHT22;28552;51.146;6.576;2023-07-08T06:13:18;21.90;98.10
42907;DHT22;28552;51.146;6.576;2023-07-08T06:16:18;22.00;97.30
42907;DHT22;28552;51.146;6.576;2023-07-08T06:19:19;22.00;96.70
42907;DHT22;28552;51.146;6.576;2023-07-08T06:22:20;22.20;96.10
42907;DHT22;28552;51.146;6.576;2023-07-08T06:25:20;22.40;95.40
42907;DHT22;28552;51.146;6.576;2023-07-08T06:28:22;22.60;94.80
42907;DHT22;28552;51.146;6.576;2023-07-08T06:31:22;22.80;94.20
42907;DHT22;28552;51.146;6.576;2023-07-08T06:34:23;23.10;93.40
42907;DHT22;28552;51.146;6.576;2023-07-08T06:37:24;23.30;92.90
42907;DHT22;28552;51.146;6.576;2023-07-08T06:40:24;23.50;92.20
42907;DHT22;28552;51.146;6.576;2023-07-08T06:43:25;23.60;91.70
42907;DHT22;28552;51.146;6.576;2023-07-08T06:46:26;23.80;91.40
42907;DHT22;28552;51.146;6.576;2023-07-08T06:49:27;24.00;90.80
42907;DHT22;28552;51.146;6.576;2023-07-08T06:52:28;24.10;90.50
42907;DHT22;28552;51.146;6.576;2023-07-08T06:55:34;24.30;90.20
42907;DHT22;28552;51.146;6.576;2023-07-08T06:58:34;24.40;90.10
42907;DHT22;28552;51.146;6.576;2023-07-08T07:01:35;24.60;88.90
42907;DHT22;28552;51.146;6.576;2023-07-08T07:04:37;24.80;87.50
42907;DHT22;28552;51.146;6.576;2023-07-08T07:07:37;24.90;85.90
42907;DHT22;28552;51.146;6.576;2023-07-08T07:10:38;25.10;85.50
42907;DHT22;28552;51.146;6.576;2023-07-08T07:13:38;25.20;84.80
42907;DHT22;28552;51.146;6.576;2023-07-08T07:16:51;25.40;84.40
42907;DHT22;28552;51.146;6.576;2023-07-08T07:19:53;25.50;84.30
42907;DHT22;28552;51.146;6.576;2023-07-08T07:22:53;25.60;84.00
42907;DHT22;28552;51.146;6.576;2023-07-08T07:25:54;25.80;82.20
42907;DHT22;28552;51.146;6.576;2023-07-08T07:28:55;26.00;80.80
42907;DHT22;28552;51.146;6.576;2023-07-08T07:31:55;26.20;79.40
42907;DHT22;28552;51.146;6.576;2023-07-08T07:34:56;26.40;78.40
42907;DHT22;28552;51.146;6.576;2023-07-08T07:37:58;26.50;77.90
42907;DHT22;28552;51.146;6.576;2023-07-08T07:40:58;26.70;78.00
42907;DHT22;28552;51.146;6.576;2023-07-08T07:44:00;26.80;76.60
42907;DHT22;28552;51.146;6.576;2023-07-08T07:47:02;26.90;76.80
42907;DHT22;28552;51.146;6.576;2023-07-08T07:50:06;27.00;76.50
42907;DHT22;28552;51.146;6.576;2023-07-08T07:53:10;27.20;76.00
42907;DHT22;28552;51.146;6.576;2023-07-08T07:56:11;27.30;75.80
42907;DHT22;28552;51.146;6.576;2023-07-08T07:59:15;27.50;75.10
42907;DHT22;28552;51.146;6.576;2023-07-08T08:02:17;27.60;73.10
42907;DHT22;28552;51.146;6.576;2023-07-08T08:05:18;27.80;71.60
42907;DHT22;28552;51.146;6.576;2023-07-08T08:08:19;27.80;70.80
42907;DHT22;28552;51.146;6.576;2023-07-08T08:11:20;27.90;70.00
42907;DHT22;28552;51.146;6.576;2023-07-08T08:14:21;27.90;68.60
42907;DHT22;28552;51.146;6.576;2023-07-08T08:17:22;27.90;67.80
42907;DHT22;28552;51.146;6.576;2023-07-08T08:20:27;27.90;67.30
42907;DHT22;28552;51.146;6.576;2023-07-08T08:23:30;27.90;66.70
42907;DHT22;28552;51.146;6.576;2023-07-08T08:26:31;28.00;66.40
42907;DHT22;28552;51.146;6.576;2023-07-08T08:29:32;28.10;66.80
42907;DHT22;28552;51.146;6.576;2023-07-08T08:32:33;28.20;65.90
42907;DHT22;28552;51.146;6.576;2023-07-08T08:35:39;28.40;65.60
42907;DHT22;28552;51.146;6.576;2023-07-08T08:38:39;28.60;66.00
42907;DHT22;28552;51.146;6.576;2023-07-08T08:41:42;28.60;65.20
42907;DHT22;28552;51.146;6.576;2023-07-08T08:44:43;28.70;64.50
42907;DHT22;28552;51.146;6.576;2023-07-08T08:47:57;28.80;64.40
42907;DHT22;28552;51.146;6.576;2023-07-08T08:51:24;28.90;63.60
42907;DHT22;28552;51.146;6.576;2023-07-08T08:54:43;29.20;62.70
42907;DHT22;28552;51.146;6.576;2023-07-08T09:02:33;29.30;61.40
42907;DHT22;28552;51.146;6.576;2023-07-08T09:14:26;29.70;61.00
42907;DHT22;28552;51.146;6.576;2023-07-08T09:50:17;30.00;57.50
42907;DHT22;28552;51.146;6.576;2023-07-08T09:54:36;29.80;57.80
42907;DHT22;28552;51.146;6.576;2023-07-08T09:58:06;29.60;57.90
42907;DHT22;28552;51.146;6.576;2023-07-08T10:09:20;29.40;57.90
42907;DHT22;28552;51.146;6.576;2023-07-08T10:16:49;29.30;57.90
42907;DHT22;28552;51.146;6.576;2023-07-08T10:19:53;29.30;57.90
42907;DHT22;28552;51.146;6.576;2023-07-08T10:30:27;29.60;57.70
42907;DHT22;28552;51.146;6.576;2023-07-08T10:33:37;29.60;57.40
42907;DHT22;28552;51.146;6.576;2023-07-08T10:40:39;29.70;57.10
42907;DHT22;28552;51.146;6.576;2023-07-08T10:44:01;29.80;57.10
42907;DHT22;28552;51.146;6.576;2023-07-08T10:47:20;29.90;56.70
42907;DHT22;28552;51.146;6.576;2023-07-08T10:51:02;29.90;56.40
42907;DHT22;28552;51.146;6.576;2023-07-08T10:58:45;30.10;56.50
42907;DHT22;28552;51.146;6.576;2023-07-08T11:09:59;30.40;56.80
42907;DHT22;28552;51.146;6.576;2023-07-08T11:17:36;30.50;56.00
42907;DHT22;28552;51.146;6.576;2023-07-08T11:25:16;30.60;56.30
42907;DHT22;28552;51.146;6.576;2023-07-08T11:28:53;30.70;55.70
42907;DHT22;28552;51.146;6.576;2023-07-08T11:32:18;30.80;55.70
42907;DHT22;28552;51.146;6.576;2023-07-08T11:36:07;30.80;55.20
42907;DHT22;28552;51.146;6.576;2023-07-08T11:39:39;31.00;55.10
42907;DHT22;28552;51.146;6.576;2023-07-08T11:42:46;31.00;54.50
42907;DHT22;28552;51.146;6.576;2023-07-08T11:45:49;31.10;54.00
42907;DHT22;28552;51.146;6.576;2023-07-08T11:48:55;31.10;53.70
42907;DHT22;28552;51.146;6.576;2023-07-08T11:56:20;31.10;53.40
42907;DHT22;28552;51.146;6.576;2023-07-08T11:59:25;31.20;52.90
42907;DHT22;28552;51.146;6.576;2023-07-08T12:02:27;31.20;53.00
42907;DHT22;28552;51.146;6.576;2023-07-08T12:05:34;31.30;52.50
42907;DHT22;28552;51.146;6.576;2023-07-08T12:08:37;31.30;52.10
42907;DHT22;28552;51.146;6.576;2023-07-08T12:11:44;31.40;52.10
42907;DHT22;28552;51.146;6.576;2023-07-08T12:14:47;31.40;51.60
42907;DHT22;28552;51.146;6.576;2023-07-08T12:17:48;31.50;51.20
42907;DHT22;28552;51.146;6.576;2023-07-08T12:20:56;31.50;51.30
42907;DHT22;28552;51.146;6.576;2023-07-08T12:24:03;31.50;51.40
42907;DHT22;28552;51.146;6.576;2023-07-08T12:27:04;31.60;51.50
42907;DHT22;28552;51.146;6.576;2023-07-08T12:30:06;31.60;51.30
42907;DHT22;28552;51.146;6.576;2023-07-08T12:33:17;31.60;50.70
42907;DHT22;28552;51.146;6.576;2023-07-08T12:36:28;31.70;50.90
42907;DHT22;28552;51.146;6.576;2023-07-08T12:39:33;31.70;50.60
42907;DHT22;28552;51.146;6.576;2023-07-08T12:42:35;31.70;50.40
42907;DHT22;28552;51.146;6.576;2023-07-08T12:45:36;31.80;50.30
42907;DHT22;28552;51.146;6.576;2023-07-08T12:48:39;31.90;50.20
42907;DHT22;28552;51.146;6.576;2023-07-08T12:51:42;31.90;50.40
42907;DHT22;28552;51.146;6.576;2023-07-08T12:54:43;31.90;49.50
42907;DHT22;28552;51.146;6.576;2023-07-08T12:57:47;32.00;49.40
42907;DHT22;28552;51.146;6.576;2023-07-08T13:00:48;32.00;49.20
42907;DHT22;28552;51.146;6.576;2023-07-08T13:03:51;32.10;49.00
42907;DHT22;28552;51.146;6.576;2023-07-08T13:06:54;32.00;49.20
42907;DHT22;28552;51.146;6.576;2023-07-08T13:09:55;32.10;49.60
42907;DHT22;28552;51.146;6.576;2023-07-08T13:13:00;32.20;49.00
42907;DHT22;28552;51.146;6.576;2023-07-08T13:16:02;32.20;48.80
42907;DHT22;28552;51.146;6.576;2023-07-08T13:19:03;32.20;48.50
42907;DHT22;28552;51.146;6.576;2023-07-08T13:22:05;32.30;48.70
42907;DHT22;28552;51.146;6.576;2023-07-08T13:25:14;32.30;49.10
42907;DHT22;28552;51.146;6.576;2023-07-08T13:28:17;32.30;49.60
42907;DHT22;28552;51.146;6.576;2023-07-08T13:31:21;32.40;49.10
42907;DHT22;28552;51.146;6.576;2023-07-08T13:34:24;32.50;49.10
42907;DHT22;28552;51.146;6.576;2023-07-08T13:37:25;32.50;49.10
42907;DHT22;28552;51.146;6.576;2023-07-08T13:40:28;32.50;48.70
42907;DHT22;28552;51.146;6.576;2023-07-08T13:43:32;32.50;48.40
42907;DHT22;28552;51.146;6.576;2023-07-08T13:46:40;32.50;48.20
42907;DHT22;28552;51.146;6.576;2023-07-08T13:49:44;32.60;48.80
42907;DHT22;28552;51.146;6.576;2023-07-08T13:52:45;32.60;48.80
42907;DHT22;28552;51.146;6.576;2023-07-08T13:55:46;32.70;48.40
42907;DHT22;28552;51.146;6.576;2023-07-08T13:58:50;32.70;47.90
42907;DHT22;28552;51.146;6.576;2023-07-08T14:01:53;32.70;48.50
42907;DHT22;28552;51.146;6.576;2023-07-08T14:04:54;32.70;48.50
42907;DHT22;28552;51.146;6.576;2023-07-08T14:07:55;32.80;48.90
42907;DHT22;28552;51.146;6.576;2023-07-08T14:10:55;32.90;48.10
42907;DHT22;28552;51.146;6.576;2023-07-08T14:13:56;32.80;47.60
42907;DHT22;28552;51.146;6.576;2023-07-08T14:16:57;32.70;47.80
42907;DHT22;28552;51.146;6.576;2023-07-08T14:19:58;32.70;47.90
42907;DHT22;28552;51.146;6.576;2023-07-08T14:22:58;32.70;47.80
42907;DHT22;28552;51.146;6.576;2023-07-08T14:25:59;32.70;47.90
42907;DHT22;28552;51.146;6.576;2023-07-08T14:28:59;32.70;48.50
42907;DHT22;28552;51.146;6.576;2023-07-08T14:32:00;32.70;48.40
42907;DHT22;28552;51.146;6.576;2023-07-08T14:35:17;32.80;48.50
42907;DHT22;28552;51.146;6.576;2023-07-08T14:38:19;32.90;48.30
42907;DHT22;28552;51.146;6.576;2023-07-08T14:41:19;32.90;47.80
42907;DHT22;28552;51.146;6.576;2023-07-08T14:44:26;33.00;47.90
42907;DHT22;28552;51.146;6.576;2023-07-08T14:47:30;32.90;47.30
42907;DHT22;28552;51.146;6.576;2023-07-08T14:50:31;32.90;47.00
42907;DHT22;28552;51.146;6.576;2023-07-08T14:53:32;32.90;46.80
42907;DHT22;28552;51.146;6.576;2023-07-08T14:56:32;32.80;46.80
42907;DHT22;28552;51.146;6.576;2023-07-08T14:59:34;32.70;47.00
42907;DHT22;28552;51.146;6.576;2023-07-08T15:02:35;32.70;47.50
42907;DHT22;28552;51.146;6.576;2023-07-08T15:05:38;32.70;48.30
42907;DHT22;28552;51.146;6.576;2023-07-08T15:08:39;32.70;49.10
42907;DHT22;28552;51.146;6.576;2023-07-08T15:11:40;32.50;49.10
42907;DHT22;28552;51.146;6.576;2023-07-08T15:14:41;32.50;48.80
42907;DHT22;28552;51.146;6.576;2023-07-08T15:17:42;32.60;48.50
42907;DHT22;28552;51.146;6.576;2023-07-08T15:20:43;32.70;48.00
42907;DHT22;28552;51.146;6.576;2023-07-08T15:23:44;32.80;47.60
42907;DHT22;28552;51.146;6.576;2023-07-08T15:26:46;32.90;47.30
42907;DHT22;28552;51.146;6.576;2023-07-08T15:29:48;33.00;46.90
42907;DHT22;28552;51.146;6.576;2023-07-08T15:32:48;33.20;46.40
42907;DHT22;28552;51.146;6.576;2023-07-08T15:35:49;33.20;46.50
42907;DHT22;28552;51.146;6.576;2023-07-08T15:38:50;33.30;46.20
42907;DHT22;28552;51.146;6.576;2023-07-08T15:41:52;33.40;45.80
42907;DHT22;28552;51.146;6.576;2023-07-08T15:44:52;33.40;45.90
42907;DHT22;28552;51.146;6.576;2023-07-08T15:47:54;33.40;45.50
42907;DHT22;28552;51.146;6.576;2023-07-08T15:50:55;33.50;45.80
42907;DHT22;28552;51.146;6.576;2023-07-08T15:53:55;33.50;45.50
42907;DHT22;28552;51.146;6.576;2023-07-08T15:56:56;33.50;45.40
42907;DHT22;28552;51.146;6.576;2023-07-08T15:59:57;33.40;45.50
42907;DHT22;28552;51.146;6.576;2023-07-08T16:02:59;33.40;45.20
42907;DHT22;28552;51.146;6.576;2023-07-08T16:06:01;33.40;45.50
42907;DHT22;28552;51.146;6.576;2023-07-08T16:09:01;33.30;45.30
42907;DHT22;28552;51.146;6.576;2023-07-08T16:12:04;33.30;45.10
42907;DHT22;28552;51.146;6.576;2023-07-08T16:15:08;33.30;45.00
42907;DHT22;28552;51.146;6.576;2023-07-08T16:18:10;33.10;45.60
42907;DHT22;28552;51.146;6.576;2023-07-08T16:21:12;33.00;46.50
42907;DHT22;28552;51.146;6.576;2023-07-08T16:24:14;33.00;46.90
42907;DHT22;28552;51.146;6.576;2023-07-08T16:27:14;33.00;46.60
42907;DHT22;28552;51.146;6.576;2023-07-08T16:30:17;33.00;46.60
42907;DHT22;28552;51.146;6.576;2023-07-08T16:33:18;33.00;47.10
42907;DHT22;28552;51.146;6.576;2023-07-08T16:36:21;32.90;46.80
42907;DHT22;28552;51.146;6.576;2023-07-08T16:39:22;32.90;47.40
42907;DHT22;28552;51.146;6.576;2023-07-08T16:42:22;33.00;47.30
42907;DHT22;28552;51.146;6.576;2023-07-08T16:45:24;33.10;47.90
42907;DHT22;28552;51.146;6.576;2023-07-08T16:48:25;33.30;46.80
42907;DHT22;28552;51.146;6.576;2023-07-08T16:51:27;33.40;46.00
42907;DHT22;28552;51.146;6.576;2023-07-08T16:54:28;33.50;46.10
42907;DHT22;28552;51.146;6.576;2023-07-08T16:57:29;33.60;46.40
42907;DHT22;28552;51.146;6.576;2023-07-08T17:00:30;33.60;45.80
42907;DHT22;28552;51.146;6.576;2023-07-08T17:03:31;33.60;45.70
42907;DHT22;28552;51.146;6.576;2023-07-08T17:06:33;33.60;45.90
42907;DHT22;28552;51.146;6.576;2023-07-08T17:09:34;33.50;46.40
42907;DHT22;28552;51.146;6.576;2023-07-08T17:12:35;33.50;46.90
42907;DHT22;28552;51.146;6.576;2023-07-08T17:15:36;33.40;47.50
42907;DHT22;28552;51.146;6.576;2023-07-08T17:18:37;33.20;47.60
42907;DHT22;28552;51.146;6.576;2023-07-08T17:21:38;33.10;48.00
42907;DHT22;28552;51.146;6.576;2023-07-08T17:24:39;33.00;48.30
42907;DHT22;28552;51.146;6.576;2023-07-08T17:27:39;33.00;49.10
42907;DHT22;28552;51.146;6.576;2023-07-08T17:30:41;33.00;49.80
42907;DHT22;28552;51.146;6.576;2023-07-08T17:33:42;33.00;50.80
42907;DHT22;28552;51.146;6.576;2023-07-08T17:36:43;33.00;50.80
42907;DHT22;28552;51.146;6.576;2023-07-08T17:39:43;32.90;50.70
42907;DHT22;28552;51.146;6.576;2023-07-08T17:42:45;32.70;51.10
42907;DHT22;28552;51.146;6.576;2023-07-08T17:45:45;32.70;52.00
42907;DHT22;28552;51.146;6.576;2023-07-08T17:48:47;32.70;52.70
42907;DHT22;28552;51.146;6.576;2023-07-08T17:51:48;32.70;52.90
42907;DHT22;28552;51.146;6.576;2023-07-08T17:54:48;32.70;51.80
42907;DHT22;28552;51.146;6.576;2023-07-08T17:57:50;32.90;51.40
42907;DHT22;28552;51.146;6.576;2023-07-08T18:00:51;33.00;52.00
42907;DHT22;28552;51.146;6.576;2023-07-08T18:03:53;33.20;53.00
42907;DHT22;28552;51.146;6.576;2023-07-08T18:06:53;33.30;53.60
42907;DHT22;28552;51.146;6.576;2023-07-08T18:09:54;33.30;53.90
42907;DHT22;28552;51.146;6.576;2023-07-08T18:12:55;33.30;53.00
42907;DHT22;28552;51.146;6.576;2023-07-08T18:15:56;33.40;52.30
42907;DHT22;28552;51.146;6.576;2023-07-08T18:18:56;33.40;51.90
42907;DHT22;28552;51.146;6.576;2023-07-08T18:21:57;33.40;51.50
42907;DHT22;28552;51.146;6.576;2023-07-08T18:24:58;33.40;51.50
42907;DHT22;28552;51.146;6.576;2023-07-08T18:28:00;33.30;51.10
42907;DHT22;28552;51.146;6.576;2023-07-08T18:31:01;33.20;50.70
42907;DHT22;28552;51.146;6.576;2023-07-08T18:34:04;33.20;50.80
42907;DHT22;28552;51.146;6.576;2023-07-08T18:37:09;33.10;50.90
42907;DHT22;28552;51.146;6.576;2023-07-08T18:40:13;33.00;51.40
42907;DHT22;28552;51.146;6.576;2023-07-08T18:43:19;32.90;51.70
42907;DHT22;28552;51.146;6.576;2023-07-08T18:46:20;32.60;52.00
42907;DHT22;28552;51.146;6.576;2023-07-08T18:49:21;32.40;52.10
42907;DHT22;28552;51.146;6.576;2023-07-08T18:52:24;32.10;52.30
42907;DHT22;28552;51.146;6.576;2023-07-08T18:55:25;31.80;52.60
42907;DHT22;28552;51.146;6.576;2023-07-08T18:58:26;31.50;53.10
42907;DHT22;28552;51.146;6.576;2023-07-08T19:01:27;31.20;53.40
42907;DHT22;28552;51.146;6.576;2023-07-08T19:04:27;31.00;53.80
42907;DHT22;28552;51.146;6.576;2023-07-08T19:07:29;30.80;54.20
42907;DHT22;28552;51.146;6.576;2023-07-08T19:10:31;30.50;54.50
42907;DHT22;28552;51.146;6.576;2023-07-08T19:13:32;30.30;54.80
42907;DHT22;28552;51.146;6.576;2023-07-08T19:16:35;30.00;55.10
42907;DHT22;28552;51.146;6.576;2023-07-08T19:19:47;29.80;55.40
42907;DHT22;28552;51.146;6.576;2023-07-08T19:23:19;29.70;55.90
42907;DHT22;28552;51.146;6.576;2023-07-08T19:27:14;29.40;56.40
42907;DHT22;28552;51.146;6.576;2023-07-08T19:37:57;28.80;57.50
42907;DHT22;28552;51.146;6.576;2023-07-08T19:40:58;28.70;57.90
42907;DHT22;28552;51.146;6.576;2023-07-08T19:44:07;28.60;58.10
42907;DHT22;28552;51.146;6.576;2023-07-08T19:47:10;28.40;58.50
42907;DHT22;28552;51.146;6.576;2023-07-08T19:50:11;28.30;58.90
42907;DHT22;28552;51.146;6.576;2023-07-08T19:53:13;28.10;59.20
42907;DHT22;28552;51.146;6.576;2023-07-08T19:56:18;28.00;59.60
42907;DHT22;28552;51.146;6.576;2023-07-08T19:59:19;27.90;59.80
42907;DHT22;28552;51.146;6.576;2023-07-08T20:02:20;27.90;60.30
42907;DHT22;28552;51.146;6.576;2023-07-08T20:05:28;27.80;60.10
42907;DHT22;28552;51.146;6.576;2023-07-08T20:08:32;27.70;60.30
42907;DHT22;28552;51.146;6.576;2023-07-08T20:11:33;27.60;60.90
42907;DHT22;28552;51.146;6.576;2023-07-08T20:14:33;27.40;61.40
42907;DHT22;28552;51.146;6.576;2023-07-08T20:17:35;27.30;62.20
42907;DHT22;28552;51.146;6.576;2023-07-08T20:20:36;27.00;62.80
42907;DHT22;28552;51.146;6.576;2023-07-08T20:23:39;26.90;63.00
42907;DHT22;28552;51.146;6.576;2023-07-08T20:26:42;26.80;62.90
42907;DHT22;28552;51.146;6.576;2023-07-08T20:29:43;26.80;62.90
42907;DHT22;28552;51.146;6.576;2023-07-08T20:32:44;26.80;63.00
42907;DHT22;28552;51.146;6.576;2023-07-08T20:35:46;26.80;63.20
42907;DHT22;28552;51.146;6.576;2023-07-08T20:38:47;26.70;63.30
42907;DHT22;28552;51.146;6.576;2023-07-08T20:41:48;26.70;63.50
42907;DHT22;28552;51.146;6.576;2023-07-08T20:44:49;26.60;63.70
42907;DHT22;28552;51.146;6.576;2023-07-08T20:47:49;26.60;63.90
42907;DHT22;28552;51.146;6.576;2023-07-08T20:50:51;26.60;64.20
42907;DHT22;28552;51.146;6.576;2023-07-08T20:53:52;26.40;64.80
42907;DHT22;28552;51.146;6.576;2023-07-08T20:56:53;26.30;65.60
42907;DHT22;28552;51.146;6.576;2023-07-08T20:59:54;26.20;66.50
42907;DHT22;28552;51.146;6.576;2023-07-08T21:02:55;26.10;67.10